createdAt,value
2022-11-19T00:02:06.615Z,0.70
2022-11-19T00:04:35.782Z,1.90
2022-11-19T00:07:03.645Z,0.70
2022-11-19T00:09:31.389Z,0.73
2022-11-19T00:12:16.854Z,1.03
2022-11-19T00:14:44.571Z,0.80
2022-11-19T00:17:12.368Z,0.83
2022-11-19T00:19:41.403Z,0.77
2022-11-19T00:22:09.105Z,2.00
2022-11-19T00:24:36.807Z,0.93
2022-11-19T00:27:04.608Z,1.10
2022-11-19T00:29:32.347Z,1.37
2022-11-19T00:32:00.035Z,0.70
2022-11-19T00:34:27.755Z,0.97
2022-11-19T00:36:56.880Z,1.87
2022-11-19T00:39:24.624Z,1.33
2022-11-19T00:41:52.386Z,1.10
2022-11-19T00:44:20.091Z,1.43
2022-11-19T00:46:47.800Z,1.57
2022-11-19T00:49:15.626Z,0.93
2022-11-19T00:51:43.336Z,1.53
2022-11-19T00:54:12.412Z,0.73
2022-11-19T00:56:40.133Z,0.97
2022-11-19T00:59:07.976Z,1.17
2022-11-19T01:01:35.763Z,1.60
2022-11-19T01:04:03.547Z,2.27
2022-11-19T01:06:31.344Z,0.93
2022-11-19T01:08:59.381Z,1.30
2022-11-19T01:11:30.257Z,1.33
2022-11-19T01:13:59.513Z,1.17
2022-11-19T01:16:29.199Z,1.07
2022-11-19T01:18:57.503Z,0.93
2022-11-19T01:21:27.165Z,0.93
2022-11-19T01:23:55.336Z,1.17
2022-11-19T01:26:23.523Z,0.80
2022-11-19T01:28:52.962Z,1.30
2022-11-19T01:31:22.408Z,0.70
2022-11-19T01:33:50.828Z,0.63
2022-11-19T01:36:20.478Z,0.90
2022-11-19T01:38:50.845Z,1.47
2022-11-19T01:41:18.884Z,2.10
2022-11-19T01:43:48.791Z,1.57
2022-11-19T01:46:19.855Z,5.87
2022-11-19T01:48:52.567Z,3.87
2022-11-19T01:51:23.878Z,2.77
2022-11-19T01:53:54.296Z,1.63
2022-11-19T01:56:23.706Z,2.33
2022-11-19T01:58:54.364Z,1.73
2022-11-19T02:01:23.776Z,0.87
2022-11-19T02:03:53.359Z,0.73
2022-11-19T02:06:21.206Z,1.17
2022-11-19T02:08:51.077Z,1.47
2022-11-19T02:11:54.345Z,1.37
2022-11-19T02:14:50.648Z,0.87
2022-11-19T02:17:34.581Z,1.77
2022-11-19T02:20:33.875Z,2.27
2022-11-19T02:23:46.358Z,2.37
2022-11-19T02:26:52.200Z,1.87
2022-11-19T02:29:44.339Z,1.00
2022-11-19T02:32:16.079Z,1.43
2022-11-19T02:34:48.868Z,1.57
2022-11-19T02:37:22.369Z,0.93
2022-11-19T02:39:53.925Z,0.73
2022-11-19T02:42:27.344Z,1.53
2022-11-19T02:45:02.182Z,0.53
2022-11-19T02:47:32.993Z,0.73
2022-11-19T02:50:04.597Z,0.43
2022-11-19T02:52:33.447Z,0.50
2022-11-19T02:55:01.188Z,0.73
2022-11-19T02:57:29.135Z,0.90
2022-11-19T03:00:19.620Z,1.07
2022-11-19T03:03:09.979Z,0.87
2022-11-19T03:05:45.832Z,0.77
2022-11-19T03:08:13.579Z,0.10
2022-11-19T03:10:51.249Z,0.63
2022-11-19T03:13:41.764Z,0.87
2022-11-19T03:16:36.698Z,0.70
2022-11-19T03:19:11.319Z,0.60
2022-11-19T03:21:42.761Z,0.80
2022-11-19T03:24:15.236Z,0.93
2022-11-19T03:26:47.940Z,0.73
2022-11-19T03:29:16.968Z,0.83
2022-11-19T03:31:50.130Z,0.27
2022-11-19T03:34:19.964Z,0.20
2022-11-19T03:36:50.489Z,1.03
2022-11-19T03:39:20.949Z,1.07
2022-11-19T03:41:51.616Z,0.83
2022-11-19T03:44:24.639Z,0.57
2022-11-19T03:46:56.875Z,0.97
2022-11-19T03:49:31.565Z,0.60
2022-11-19T03:52:03.965Z,0.50
2022-11-19T03:54:31.753Z,0.40
2022-11-19T03:57:00.440Z,0.53
2022-11-19T03:59:30.075Z,0.70
2022-11-19T04:02:03.864Z,0.80
2022-11-19T04:04:37.951Z,1.23
2022-11-19T04:07:11.807Z,1.03
2022-11-19T04:09:40.738Z,1.47
2022-11-19T04:12:17.473Z,0.40
2022-11-19T04:14:45.736Z,0.47
2022-11-19T04:17:14.856Z,0.40
2022-11-19T04:19:43.032Z,1.03
2022-11-19T04:22:11.232Z,0.53
2022-11-19T04:24:38.987Z,0.83
2022-11-19T04:27:06.750Z,0.63
2022-11-19T04:29:34.492Z,0.60
2022-11-19T04:32:02.191Z,1.30
2022-11-19T04:34:31.423Z,1.40
2022-11-19T04:36:59.531Z,1.07
2022-11-19T04:39:27.279Z,0.60
2022-11-19T04:41:55.260Z,0.63
2022-11-19T04:44:23.087Z,0.83
2022-11-19T04:46:50.917Z,0.30
2022-11-19T04:49:18.878Z,0.07
2022-11-19T04:51:48.137Z,0.33
2022-11-19T04:54:15.918Z,0.57
2022-11-19T04:56:43.670Z,0.47
2022-11-19T04:59:11.401Z,0.60
2022-11-19T05:01:39.193Z,0.10
2022-11-19T05:04:07.157Z,0.90
2022-11-19T05:06:34.928Z,0.87
2022-11-19T05:09:04.174Z,0.67
2022-11-19T05:11:32.011Z,0.40
2022-11-19T05:13:59.777Z,0.87
2022-11-19T05:16:27.692Z,1.17
2022-11-19T05:18:55.408Z,0.80
2022-11-19T05:21:23.120Z,0.87
2022-11-19T05:23:50.811Z,1.07
2022-11-19T05:26:19.912Z,0.50
2022-11-19T05:28:47.824Z,0.47
2022-11-19T05:31:15.592Z,0.43
2022-11-19T05:33:43.454Z,1.63
2022-11-19T05:36:11.311Z,0.87
2022-11-19T05:38:39.028Z,2.20
2022-11-19T05:41:06.933Z,0.90
2022-11-19T05:43:35.972Z,0.40
2022-11-19T05:46:04.126Z,0.93
2022-11-19T05:48:31.827Z,0.43
2022-11-19T05:50:59.670Z,0.53
2022-11-19T05:53:27.697Z,0.37
2022-11-19T05:55:55.540Z,0.50
2022-11-19T05:58:23.261Z,0.50
2022-11-19T06:00:56.191Z,0.90
2022-11-19T06:03:23.909Z,1.47
2022-11-19T06:05:51.849Z,0.47
2022-11-19T06:08:19.819Z,1.67
2022-11-19T06:10:47.638Z,0.90
2022-11-19T06:13:15.664Z,0.87
2022-11-19T06:15:43.377Z,0.93
2022-11-19T06:18:12.450Z,1.17
2022-11-19T06:20:40.408Z,0.60
2022-11-19T06:23:08.176Z,0.97
2022-11-19T06:25:35.926Z,1.03
2022-11-19T06:28:03.665Z,1.20
2022-11-19T06:30:31.468Z,1.07
2022-11-19T06:32:59.283Z,1.03
2022-11-19T06:35:28.393Z,1.53
2022-11-19T06:37:56.102Z,1.07
2022-11-19T06:40:23.915Z,0.30
2022-11-19T06:42:51.641Z,0.30
2022-11-19T06:45:19.525Z,1.07
2022-11-19T06:47:49.500Z,0.50
2022-11-19T06:50:18.349Z,1.17
2022-11-19T06:52:47.493Z,0.77
2022-11-19T06:55:15.517Z,0.80
2022-11-19T06:57:43.429Z,0.77
2022-11-19T07:00:15.537Z,0.80
2022-11-19T07:02:43.437Z,1.00
2022-11-19T07:05:11.268Z,0.93
2022-11-19T07:07:39.031Z,0.83
2022-11-19T07:10:09.520Z,1.10
2022-11-19T07:12:38.425Z,1.13
2022-11-19T07:15:07.145Z,0.63
2022-11-19T07:17:34.997Z,0.30
2022-11-19T07:20:03.031Z,1.33
2022-11-19T07:22:30.773Z,1.10
2022-11-19T07:24:58.510Z,1.37
2022-11-19T07:27:27.917Z,0.90
2022-11-19T07:29:55.641Z,0.53
2022-11-19T07:32:23.320Z,1.07
2022-11-19T07:34:51.037Z,1.03
2022-11-19T07:37:18.852Z,0.97
2022-11-19T07:39:46.963Z,0.70
2022-11-19T07:42:46.803Z,1.13
2022-11-19T07:45:16.132Z,1.50
2022-11-19T07:47:44.005Z,0.43
2022-11-19T07:50:12.435Z,0.53
2022-11-19T07:52:40.545Z,1.10
2022-11-19T07:55:09.112Z,0.83
2022-11-19T07:57:37.341Z,0.83
2022-11-19T08:00:06.897Z,0.80
2022-11-19T08:02:37.258Z,1.57
2022-11-19T08:05:05.366Z,2.35
2022-11-19T08:07:33.211Z,1.10
2022-11-19T08:10:00.958Z,2.20
2022-11-19T08:12:30.532Z,1.83
2022-11-19T08:14:58.302Z,1.37
2022-11-19T08:17:43.488Z,0.87
2022-11-19T08:20:12.988Z,0.87
2022-11-19T08:22:42.052Z,0.90
2022-11-19T08:25:10.026Z,1.17
2022-11-19T08:27:37.831Z,4.10
2022-11-19T08:30:06.200Z,2.83
2022-11-19T08:32:37.290Z,3.77
2022-11-19T08:35:05.677Z,1.30
2022-11-19T08:37:34.746Z,1.23
2022-11-19T08:40:02.573Z,1.73
2022-11-19T08:42:47.888Z,1.47
2022-11-19T08:45:20.619Z,1.97
2022-11-19T08:47:48.896Z,1.20
2022-11-19T08:50:17.167Z,1.70
2022-11-19T08:52:46.210Z,2.30
2022-11-19T08:55:14.541Z,1.47
2022-11-19T08:57:46.893Z,1.60
2022-11-19T09:00:20.228Z,3.40
2022-11-19T09:02:48.588Z,3.00
2022-11-19T09:05:17.875Z,1.97
2022-11-19T09:07:47.072Z,2.40
2022-11-19T09:10:15.398Z,1.57
2022-11-19T09:12:48.108Z,2.83
2022-11-19T09:15:16.317Z,1.70
2022-11-19T09:17:46.996Z,2.20
2022-11-19T09:20:15.702Z,2.17
2022-11-19T09:22:43.820Z,1.90
2022-11-19T09:25:15.683Z,2.07
2022-11-19T09:27:43.424Z,1.63
2022-11-19T09:30:11.568Z,2.30
2022-11-19T09:32:39.321Z,1.53
2022-11-19T09:35:08.049Z,1.17
2022-11-19T09:37:36.151Z,1.80
2022-11-19T09:40:04.731Z,1.27
2022-11-19T09:42:43.212Z,2.50
2022-11-19T09:45:23.326Z,2.53
2022-11-19T09:48:01.384Z,1.83
2022-11-19T09:50:33.307Z,1.80
2022-11-19T09:53:07.118Z,1.27
2022-11-19T09:55:37.681Z,1.13
2022-11-19T09:58:12.855Z,2.20
2022-11-19T10:00:40.544Z,1.93
2022-11-19T10:03:15.735Z,1.70
2022-11-19T10:05:56.310Z,1.77
2022-11-19T10:08:36.454Z,1.43
2022-11-19T10:11:18.728Z,1.87
2022-11-19T10:13:57.761Z,1.50
2022-11-19T10:16:39.871Z,2.17
2022-11-19T10:19:19.769Z,1.83
2022-11-19T10:21:58.204Z,1.43
2022-11-19T10:24:35.245Z,2.33
2022-11-19T10:27:12.467Z,1.93
2022-11-19T10:29:41.570Z,1.23
2022-11-19T10:32:24.215Z,1.90
2022-11-19T10:34:57.735Z,1.43
2022-11-19T10:37:30.467Z,1.60
2022-11-19T10:40:03.205Z,1.83
2022-11-19T10:42:35.416Z,2.10
2022-11-19T10:45:07.779Z,1.57
2022-11-19T10:47:41.660Z,2.03
2022-11-19T10:50:17.432Z,1.20
2022-11-19T10:52:48.986Z,1.40
2022-11-19T10:55:23.215Z,1.23
2022-11-19T10:57:54.391Z,1.30
2022-11-19T11:00:23.541Z,1.97
2022-11-19T11:02:59.128Z,2.63
2022-11-19T11:05:26.825Z,1.30
2022-11-19T11:07:56.008Z,2.33
2022-11-19T11:10:33.839Z,1.37
2022-11-19T11:13:27.330Z,1.47
2022-11-19T11:15:56.427Z,2.33
2022-11-19T11:18:28.352Z,1.73
2022-11-19T11:20:56.964Z,1.50
2022-11-19T11:23:27.079Z,1.60
2022-11-19T11:26:00.997Z,0.97
2022-11-19T11:28:29.665Z,1.30
2022-11-19T11:31:00.277Z,1.37
2022-11-19T11:33:32.261Z,1.23
2022-11-19T11:36:06.230Z,0.90
2022-11-19T11:38:40.347Z,1.43
2022-11-19T11:44:04.067Z,1.00
2022-11-19T11:46:38.629Z,0.83
2022-11-19T11:49:12.453Z,0.83
2022-11-19T11:51:40.823Z,0.90
2022-11-19T11:54:18.700Z,1.80
2022-11-19T11:56:48.047Z,1.20
2022-11-19T11:59:22.503Z,0.83
2022-11-19T12:01:56.308Z,1.53
2022-11-19T12:04:24.915Z,1.23
2022-11-19T12:07:05.881Z,0.53
2022-11-19T12:09:42.451Z,0.70
2022-11-19T12:12:17.325Z,0.80
2022-11-19T12:14:52.900Z,0.80
2022-11-19T12:17:38.420Z,0.73
2022-11-19T12:20:22.409Z,0.60
2022-11-19T12:23:10.375Z,0.50
2022-11-19T12:25:41.332Z,0.80
2022-11-19T12:28:42.757Z,0.77
2022-11-19T12:31:29.923Z,0.50
2022-11-19T12:34:40.867Z,0.50
2022-11-19T12:37:29.911Z,0.77
2022-11-19T12:40:04.417Z,0.30
2022-11-19T12:42:46.877Z,0.57
2022-11-19T12:45:22.852Z,0.50
2022-11-19T12:48:07.404Z,0.40
2022-11-19T12:50:47.499Z,0.77
2022-11-19T12:53:24.227Z,0.60
2022-11-19T12:56:03.237Z,0.60
2022-11-19T12:58:45.456Z,0.43
2022-11-19T13:01:17.395Z,0.97
2022-11-19T13:03:56.068Z,0.40
2022-11-19T13:06:31.202Z,1.17
2022-11-19T13:09:02.218Z,0.77
2022-11-19T13:11:36.456Z,0.77
2022-11-19T13:14:10.544Z,0.40
2022-11-19T13:16:38.372Z,0.83
2022-11-19T13:19:16.561Z,0.40
2022-11-19T13:21:53.103Z,0.63
2022-11-19T13:24:30.147Z,0.43
2022-11-19T13:27:03.053Z,0.67
2022-11-19T13:29:38.189Z,0.30
2022-11-19T13:32:16.585Z,0.50
2022-11-19T13:34:49.422Z,0.70
2022-11-19T13:37:23.579Z,0.60
2022-11-19T13:39:56.364Z,0.77
2022-11-19T13:42:43.125Z,0.73
2022-11-19T13:45:15.588Z,0.60
2022-11-19T13:47:48.260Z,1.00
2022-11-19T13:50:20.926Z,0.87
2022-11-19T13:52:58.645Z,0.50
2022-11-19T13:55:36.231Z,0.87
2022-11-19T13:58:17.142Z,1.30
2022-11-19T14:01:08.265Z,0.20
2022-11-19T14:03:46.974Z,0.40
2022-11-19T14:06:38.555Z,0.47
2022-11-19T14:09:20.356Z,0.50
2022-11-19T14:12:09.840Z,0.40
2022-11-19T14:15:11.844Z,0.50
2022-11-19T14:18:05.116Z,0.43
2022-11-19T14:20:56.520Z,0.30
2022-11-19T14:24:03.193Z,1.63
2022-11-19T14:27:03.592Z,1.20
2022-11-19T14:29:54.497Z,1.30
2022-11-19T14:32:35.021Z,1.83
2022-11-19T14:35:38.794Z,1.17
2022-11-19T14:38:33.170Z,1.60
2022-11-19T14:41:17.339Z,0.97
2022-11-19T14:44:11.438Z,0.93
2022-11-19T14:46:45.597Z,0.63
2022-11-19T14:49:34.566Z,0.73
2022-11-19T14:52:03.706Z,0.77
2022-11-19T14:54:39.719Z,1.30
2022-11-19T14:57:24.481Z,0.63
2022-11-19T14:59:57.377Z,0.60
2022-11-19T15:02:30.211Z,0.40
2022-11-19T15:05:02.802Z,1.13
2022-11-19T15:07:40.720Z,1.37
2022-11-19T15:10:28.282Z,0.60
2022-11-19T15:13:22.661Z,0.97
2022-11-19T15:15:55.523Z,0.50
2022-11-19T15:19:03.155Z,1.23
2022-11-19T15:21:57.429Z,1.00
2022-11-19T15:24:34.844Z,1.50
2022-11-19T15:27:16.094Z,0.70
2022-11-19T15:30:01.519Z,0.93
2022-11-19T15:32:53.371Z,0.97
2022-11-19T15:35:56.658Z,1.40
2022-11-19T15:38:30.976Z,1.13
2022-11-19T15:41:02.817Z,1.77
2022-11-19T15:43:35.754Z,1.87
2022-11-19T15:46:09.281Z,1.30
2022-11-19T15:48:42.527Z,1.03
2022-11-19T15:51:15.856Z,1.57
2022-11-19T15:53:58.686Z,1.83
2022-11-19T15:56:28.895Z,2.07
2022-11-19T15:58:57.183Z,1.73
2022-11-19T16:01:25.582Z,1.63
2022-11-19T16:03:55.157Z,0.97
2022-11-19T16:06:24.635Z,1.00
2022-11-19T16:08:54.582Z,1.43
2022-11-19T16:11:42.629Z,0.90
2022-11-19T16:14:38.676Z,1.13
2022-11-19T16:17:31.091Z,0.93
2022-11-19T16:20:21.812Z,2.30
2022-11-19T16:22:54.905Z,1.80
2022-11-19T16:25:30.312Z,2.33
2022-11-19T16:28:01.339Z,1.37
2022-11-19T16:30:32.039Z,1.37
2022-11-19T16:33:00.435Z,2.37
2022-11-19T16:35:31.966Z,1.70
2022-11-19T16:38:01.269Z,2.13
2022-11-19T16:40:52.190Z,1.63
2022-11-19T16:43:20.028Z,1.57
2022-11-19T16:45:48.212Z,1.83
2022-11-19T16:48:58.556Z,1.93
2022-11-19T16:51:36.709Z,3.13
2022-11-19T16:54:07.131Z,2.53
2022-11-19T16:56:39.723Z,1.27
2022-11-19T16:59:08.019Z,1.43
2022-11-19T17:01:36.341Z,1.57
2022-11-19T17:04:07.916Z,1.57
2022-11-19T17:06:38.585Z,2.57
2022-11-19T17:09:07.218Z,0.80
2022-11-19T17:12:06.315Z,1.77
2022-11-19T17:14:59.256Z,1.23
2022-11-19T17:17:40.447Z,1.87
2022-11-19T17:21:00.689Z,1.57
2022-11-19T17:23:31.676Z,1.83
2022-11-19T17:26:01.543Z,1.90
2022-11-19T17:28:38.360Z,2.40
2022-11-19T17:31:14.523Z,2.80
2022-11-19T17:33:50.899Z,2.13
2022-11-19T17:36:19.222Z,2.50
2022-11-19T17:38:48.652Z,2.20
2022-11-19T17:41:40.761Z,1.97
2022-11-19T17:44:30.472Z,2.63
2022-11-19T17:46:58.396Z,2.90
2022-11-19T17:49:26.397Z,3.60
2022-11-19T17:51:55.275Z,2.40
2022-11-19T17:54:24.526Z,2.37
2022-11-19T17:56:52.285Z,1.97
2022-11-19T17:59:20.034Z,1.23
2022-11-19T18:01:47.825Z,1.63
2022-11-19T18:04:15.888Z,2.23
2022-11-19T18:06:44.261Z,1.97
2022-11-19T18:09:12.024Z,1.40
2022-11-19T18:11:41.285Z,1.60
2022-11-19T18:14:10.119Z,1.70
2022-11-19T18:16:39.989Z,2.90
2022-11-19T18:19:12.615Z,2.37
2022-11-19T18:21:42.496Z,2.00
2022-11-19T18:24:13.581Z,2.13
2022-11-19T18:26:42.613Z,2.13
2022-11-19T18:29:10.467Z,2.70
2022-11-19T18:31:43.933Z,2.20
2022-11-19T18:34:16.997Z,2.30
2022-11-19T18:36:44.757Z,2.47
2022-11-19T18:39:12.924Z,2.57
2022-11-19T18:41:42.298Z,2.70
2022-11-19T18:44:32.175Z,3.17
2022-11-19T18:47:00.161Z,3.00
2022-11-19T18:49:27.936Z,2.50
2022-11-19T18:51:55.803Z,1.57
2022-11-19T18:54:24.024Z,2.10
2022-11-19T18:56:53.162Z,2.63
2022-11-19T18:59:21.200Z,2.57
2022-11-19T19:01:52.093Z,1.77
2022-11-19T19:04:20.088Z,1.90
2022-11-19T19:06:47.849Z,2.97
2022-11-19T19:09:20.199Z,1.67
2022-11-19T19:12:12.265Z,2.30
2022-11-19T19:14:42.672Z,2.37
2022-11-19T19:17:10.401Z,2.97
2022-11-19T19:19:39.063Z,2.33
2022-11-19T19:22:07.550Z,1.90
2022-11-19T19:24:35.598Z,2.40
2022-11-19T19:27:03.821Z,2.33
2022-11-19T19:29:31.559Z,1.33
2022-11-19T19:32:00.795Z,2.13
2022-11-19T19:34:29.749Z,1.70
2022-11-19T19:36:57.550Z,2.67
2022-11-19T19:39:25.323Z,2.97
2022-11-19T19:41:53.487Z,1.70
2022-11-19T19:44:21.305Z,1.67
2022-11-19T19:46:49.655Z,1.47
2022-11-19T19:49:19.649Z,2.53
2022-11-19T19:51:49.467Z,2.43
2022-11-19T19:54:17.277Z,1.83
2022-11-19T19:56:45.080Z,1.80
2022-11-19T19:59:14.202Z,1.37
2022-11-19T20:01:45.294Z,1.80
2022-11-19T20:04:13.235Z,2.13
2022-11-19T20:06:45.844Z,1.60
2022-11-19T20:09:13.938Z,2.20
2022-11-19T20:11:41.724Z,1.67
2022-11-19T20:14:11.738Z,2.30
2022-11-19T20:16:41.659Z,1.73
2022-11-19T20:19:13.141Z,2.33
2022-11-19T20:21:42.780Z,2.33
2022-11-19T20:24:12.863Z,1.47
2022-11-19T20:26:42.612Z,1.83
2022-11-19T20:29:13.154Z,2.00
2022-11-19T20:31:41.613Z,1.80
2022-11-19T20:34:11.912Z,2.20
2022-11-19T20:36:39.840Z,1.60
2022-11-19T20:39:09.177Z,1.00
2022-11-19T20:41:54.597Z,1.67
2022-11-19T20:44:23.341Z,1.90
2022-11-19T20:46:54.515Z,1.87
2022-11-19T20:49:24.915Z,1.83
2022-11-19T20:51:54.125Z,2.00
2022-11-19T20:54:23.773Z,2.33
2022-11-19T20:56:52.708Z,1.37
2022-11-19T20:59:21.325Z,2.40
2022-11-19T21:01:50.138Z,2.53
2022-11-19T21:04:18.411Z,2.10
2022-11-19T21:06:46.535Z,1.77
2022-11-19T21:09:15.709Z,1.57
2022-11-19T21:11:45.088Z,2.50
2022-11-19T21:14:13.433Z,2.43
2022-11-19T21:16:41.220Z,1.70
2022-11-19T21:19:10.661Z,1.77
2022-11-19T21:21:38.993Z,1.73
2022-11-19T21:24:07.996Z,1.10
2022-11-19T21:26:35.931Z,1.53
2022-11-19T21:29:05.491Z,1.33
2022-11-19T21:31:42.052Z,1.50
2022-11-19T21:34:11.739Z,1.60
2022-11-19T21:36:40.260Z,1.67
2022-11-19T21:39:08.213Z,1.80
2022-11-19T21:41:36.365Z,0.90
2022-11-19T21:44:06.134Z,1.03
2022-11-19T21:46:34.465Z,1.40
2022-11-19T21:49:02.512Z,2.07
2022-11-19T21:51:30.493Z,1.53
2022-11-19T21:53:59.117Z,1.70
2022-11-19T21:56:32.513Z,1.70
2022-11-19T21:59:06.407Z,1.73
2022-11-19T22:01:34.119Z,1.90
2022-11-19T22:04:01.919Z,1.73
2022-11-19T22:06:30.575Z,1.60
2022-11-19T22:08:58.345Z,1.50
2022-11-19T22:11:32.308Z,1.93
2022-11-19T22:14:01.941Z,1.73
2022-11-19T22:16:32.678Z,0.80
2022-11-19T22:19:00.472Z,1.60
2022-11-19T22:21:29.027Z,1.47
2022-11-19T22:23:57.381Z,1.80
2022-11-19T22:26:25.375Z,1.27
2022-11-19T22:28:53.115Z,1.70
2022-11-19T22:31:20.833Z,1.40
2022-11-19T22:33:51.725Z,1.90
2022-11-19T22:36:21.054Z,1.77
2022-11-19T22:38:48.908Z,1.90
2022-11-19T22:41:19.981Z,1.87
2022-11-19T22:43:47.946Z,1.47
2022-11-19T22:46:16.288Z,1.50
2022-11-19T22:48:44.151Z,1.40
2022-11-19T22:51:15.486Z,2.23
2022-11-19T22:53:43.586Z,1.07
2022-11-19T22:56:13.248Z,1.67
2022-11-19T22:58:41.656Z,1.03
2022-11-19T23:01:16.432Z,0.90
2022-11-19T23:03:44.424Z,1.50
2022-11-19T23:06:13.806Z,1.80
2022-11-19T23:08:41.680Z,2.53
2022-11-19T23:11:09.751Z,2.47
2022-11-19T23:13:38.891Z,1.90
2022-11-19T23:16:08.994Z,1.33
2022-11-19T23:18:38.291Z,1.40
2022-11-19T23:21:08.541Z,1.53
2022-11-19T23:23:38.130Z,1.47
2022-11-19T23:26:08.364Z,1.40
2022-11-19T23:28:38.141Z,1.50
2022-11-19T23:31:06.257Z,1.10
2022-11-19T23:33:34.045Z,1.10
2022-11-19T23:36:03.173Z,1.33
2022-11-19T23:38:31.057Z,0.77
2022-11-19T23:41:00.986Z,1.37
2022-11-19T23:43:29.660Z,1.10
2022-11-19T23:46:03.506Z,1.70
2022-11-19T23:48:31.535Z,1.37
2022-11-19T23:51:01.941Z,1.23
2022-11-19T23:53:29.644Z,1.27
2022-11-19T23:55:57.528Z,0.80
2022-11-19T23:58:27.037Z,1.53
